createdAt,value
2023-03-10T00:00:07.977Z,0
2023-03-10T00:03:07.770Z,0
2023-03-10T00:06:08.382Z,0
2023-03-10T00:09:07.800Z,0
2023-03-10T00:12:07.786Z,0
2023-03-10T00:15:07.850Z,0
2023-03-10T00:18:07.793Z,0
2023-03-10T00:21:07.814Z,0
2023-03-10T00:24:07.846Z,0
2023-03-10T00:27:07.773Z,0
2023-03-10T00:30:07.868Z,0
2023-03-10T00:33:07.843Z,0
2023-03-10T00:36:08.056Z,0
2023-03-10T00:39:10.784Z,0
2023-03-10T00:42:07.773Z,0
2023-03-10T00:45:07.832Z,0
2023-03-10T00:48:07.784Z,0
2023-03-10T00:51:07.835Z,0
2023-03-10T00:54:07.817Z,0
2023-03-10T00:57:07.809Z,0
2023-03-10T01:00:07.838Z,0
2023-03-10T01:03:07.804Z,0
2023-03-10T01:06:07.800Z,0
2023-03-10T01:09:07.776Z,0
2023-03-10T01:12:08.006Z,0
2023-03-10T01:15:07.854Z,0
2023-03-10T01:18:07.903Z,0
2023-03-10T01:21:07.912Z,0
2023-03-10T01:24:07.796Z,0
2023-03-10T01:27:07.801Z,0
2023-03-10T01:30:07.888Z,0
2023-03-10T01:33:07.849Z,0
2023-03-10T01:36:08.120Z,0
2023-03-10T01:39:07.761Z,0
2023-03-10T01:42:07.735Z,0
2023-03-10T01:45:07.812Z,0
2023-03-10T01:48:07.830Z,0
2023-03-10T01:51:07.788Z,0
2023-03-10T01:54:07.829Z,0
2023-03-10T01:57:07.784Z,0
2023-03-10T02:00:07.830Z,0
2023-03-10T02:03:07.826Z,0
2023-03-10T02:06:07.765Z,0
2023-03-10T02:09:07.815Z,0
2023-03-10T02:12:07.809Z,0
2023-03-10T02:15:07.974Z,0
2023-03-10T02:18:08.172Z,0
2023-03-10T02:21:07.821Z,0
2023-03-10T02:24:08.734Z,0
2023-03-10T02:27:07.836Z,0
2023-03-10T02:30:07.976Z,0
2023-03-10T02:33:07.834Z,0
2023-03-10T02:36:08.071Z,0
2023-03-10T02:39:07.803Z,0
2023-03-10T02:42:07.752Z,0
2023-03-10T02:45:07.800Z,0
2023-03-10T02:48:07.779Z,0
2023-03-10T02:51:07.806Z,0
2023-03-10T02:54:07.789Z,0
2023-03-10T02:57:07.779Z,0
2023-03-10T03:00:07.880Z,0
2023-03-10T03:03:07.795Z,0
2023-03-10T03:06:07.800Z,0
2023-03-10T03:09:07.835Z,0
2023-03-10T03:12:07.850Z,0
2023-03-10T03:15:07.849Z,0
2023-03-10T03:18:07.819Z,0
2023-03-10T03:21:08.266Z,0
2023-03-10T03:24:08.152Z,0
2023-03-10T03:27:07.732Z,0
2023-03-10T03:30:07.946Z,0
2023-03-10T03:33:07.844Z,0
2023-03-10T03:36:08.130Z,0
2023-03-10T03:39:07.764Z,0
2023-03-10T03:42:07.786Z,0
2023-03-10T03:45:07.793Z,0
2023-03-10T03:48:07.791Z,0
2023-03-10T03:51:07.781Z,0
2023-03-10T03:54:07.963Z,0
2023-03-10T03:57:07.930Z,0
2023-03-10T04:00:08.021Z,0
2023-03-10T04:03:07.906Z,0
2023-03-10T04:06:07.860Z,0
2023-03-10T04:09:07.752Z,0
2023-03-10T04:12:07.850Z,0
2023-03-10T04:15:07.820Z,0
2023-03-10T04:18:07.883Z,0
2023-03-10T04:21:07.748Z,0
2023-03-10T04:24:07.961Z,0
2023-03-10T04:27:07.839Z,0
2023-03-10T04:30:08.197Z,0
2023-03-10T04:33:07.891Z,0
2023-03-10T04:36:08.167Z,0
2023-03-10T04:39:07.764Z,0
2023-03-10T04:42:07.800Z,0
2023-03-10T04:45:07.802Z,0
2023-03-10T04:48:07.814Z,0
2023-03-10T04:51:07.786Z,0
2023-03-10T04:54:07.818Z,0
2023-03-10T04:57:07.833Z,0
2023-03-10T05:00:10.660Z,0
2023-03-10T05:03:07.937Z,0
2023-03-10T05:06:07.866Z,0
2023-03-10T05:09:07.857Z,0
2023-03-10T05:12:07.816Z,0
2023-03-10T05:15:07.806Z,0
2023-03-10T05:18:07.793Z,0
2023-03-10T05:21:07.827Z,0
2023-03-10T05:24:08.005Z,3
2023-03-10T05:27:07.795Z,7
2023-03-10T05:30:07.840Z,13
2023-03-10T05:33:07.792Z,20
2023-03-10T05:36:08.228Z,33
2023-03-10T05:39:07.774Z,50
2023-03-10T05:42:07.842Z,77
2023-03-10T05:45:07.853Z,70
2023-03-10T05:48:07.904Z,80
2023-03-10T05:51:08.027Z,150
2023-03-10T05:54:07.949Z,203
2023-03-10T05:57:07.923Z,320
2023-03-10T06:00:07.900Z,427
2023-03-10T06:03:08.089Z,560
2023-03-10T06:06:08.089Z,687
2023-03-10T06:09:07.928Z,930
2023-03-10T06:12:07.873Z,1203
2023-03-10T06:15:07.993Z,1417
2023-03-10T06:18:07.832Z,1563
2023-03-10T06:21:07.823Z,1797
2023-03-10T06:24:08.048Z,2093
2023-03-10T06:27:07.969Z,2217
2023-03-10T06:30:08.298Z,2170
2023-03-10T06:33:08.070Z,2207
2023-03-10T06:36:08.124Z,2260
2023-03-10T06:39:08.020Z,2560
2023-03-10T06:42:08.029Z,3033
2023-03-10T06:45:07.845Z,3483
2023-03-10T06:48:07.828Z,3150
2023-03-10T06:51:07.875Z,2987
2023-03-10T06:54:07.931Z,2263
2023-03-10T06:57:07.836Z,2067
2023-03-10T07:00:07.986Z,1577
2023-03-10T07:03:07.807Z,803
2023-03-10T07:06:07.836Z,1037
2023-03-10T07:09:07.835Z,1127
2023-03-10T07:12:07.891Z,1153
2023-03-10T07:15:07.980Z,2087
2023-03-10T07:18:08.052Z,2387
2023-03-10T07:21:07.961Z,3900
2023-03-10T07:24:08.349Z,3623
2023-03-10T07:27:08.072Z,3857
2023-03-10T07:30:08.009Z,4027
2023-03-10T07:33:07.920Z,4493
2023-03-10T07:36:08.100Z,4060
2023-03-10T07:39:07.886Z,4767
2023-03-10T07:42:07.910Z,4870
2023-03-10T07:45:07.858Z,4023
2023-03-10T07:48:08.019Z,3613
2023-03-10T07:51:07.977Z,4810
2023-03-10T07:54:07.811Z,5520
2023-03-10T07:57:07.917Z,4210
2023-03-10T08:00:08.414Z,3363
2023-03-10T08:03:07.877Z,3910
2023-03-10T08:06:08.079Z,6313
2023-03-10T08:09:07.799Z,7450
2023-03-10T08:12:07.879Z,6027
2023-03-10T08:15:07.880Z,5197
2023-03-10T08:18:08.676Z,5487
2023-03-10T08:21:08.997Z,6187
2023-03-10T08:24:08.790Z,7343
2023-03-10T08:27:10.997Z,8563
2023-03-10T08:30:10.476Z,9750
2023-03-10T08:33:09.162Z,8510
2023-03-10T08:36:09.393Z,5797
2023-03-10T08:39:10.326Z,6720
2023-03-10T08:45:10.805Z,10813
2023-03-10T08:48:07.899Z,10620
2023-03-10T08:51:07.936Z,7800
2023-03-10T08:54:07.886Z,7787
2023-03-10T08:57:07.884Z,10490
2023-03-10T09:00:08.045Z,8647
2023-03-10T09:03:08.292Z,10267
2023-03-10T09:06:07.879Z,10367
2023-03-10T09:09:08.023Z,13353
2023-03-10T09:12:08.119Z,7873
2023-03-10T09:15:07.779Z,7910
2023-03-10T09:18:07.820Z,4397
2023-03-10T09:21:07.884Z,6357
2023-03-10T09:24:07.854Z,8200
2023-03-10T09:27:07.856Z,13247
2023-03-10T09:30:08.621Z,10230
2023-03-10T09:33:08.330Z,9590
2023-03-10T09:36:15.142Z,12550
2023-03-10T09:39:08.050Z,11190
2023-03-10T09:42:07.872Z,11847
2023-03-10T09:45:07.945Z,11107
2023-03-10T09:48:11.461Z,8010
2023-03-10T09:51:08.019Z,13370
2023-03-10T09:54:07.906Z,7040
2023-03-10T09:57:07.794Z,7263
2023-03-10T10:00:07.975Z,10337
2023-03-10T10:03:11.195Z,11033
2023-03-10T10:06:07.817Z,10950
2023-03-10T10:09:12.604Z,12487
2023-03-10T10:12:07.936Z,15560
2023-03-10T10:15:07.804Z,13507
2023-03-10T10:18:30.106Z,11960
2023-03-10T10:21:10.139Z,14227
2023-03-10T10:24:07.889Z,16470
2023-03-10T10:27:07.849Z,9813
2023-03-10T10:30:07.956Z,7740
2023-03-10T10:33:07.799Z,8407
2023-03-10T10:36:08.351Z,7767
2023-03-10T10:39:07.896Z,8363
2023-03-10T10:42:07.944Z,12117
2023-03-10T10:45:07.880Z,13593
2023-03-10T10:48:07.868Z,15497
2023-03-10T10:51:07.797Z,12517
2023-03-10T10:54:07.928Z,9557
2023-03-10T10:57:07.802Z,8960
2023-03-10T11:00:08.043Z,9687
2023-03-10T11:03:07.886Z,16937
2023-03-10T11:06:07.903Z,12607
2023-03-10T11:09:12.324Z,11053
2023-03-10T11:12:08.156Z,10133
2023-03-10T11:15:08.061Z,6320
2023-03-10T11:18:07.820Z,6083
2023-03-10T11:21:07.953Z,9467
2023-03-10T11:24:07.906Z,8600
2023-03-10T11:27:07.856Z,13307
2023-03-10T11:30:07.922Z,12773
2023-03-10T11:33:07.898Z,17983
2023-03-10T11:36:08.698Z,10867
2023-03-10T11:39:07.914Z,9860
2023-03-10T11:42:07.848Z,9807
2023-03-10T11:45:08.031Z,8307
2023-03-10T11:48:08.022Z,4877
2023-03-10T11:51:07.936Z,4217
2023-03-10T11:54:07.877Z,4020
2023-03-10T11:57:07.882Z,4820
2023-03-10T12:00:08.231Z,5740
2023-03-10T12:03:07.892Z,7730
2023-03-10T12:06:07.820Z,12187
2023-03-10T12:09:07.881Z,24747
2023-03-10T12:12:07.981Z,16923
2023-03-10T12:15:07.842Z,27280
2023-03-10T12:18:07.876Z,23467
2023-03-10T12:21:07.996Z,16970
2023-03-10T12:24:07.879Z,11223
2023-03-10T12:27:07.997Z,8027
2023-03-10T12:30:08.050Z,9110
2023-03-10T12:33:07.793Z,7930
2023-03-10T12:36:08.118Z,7183
2023-03-10T12:39:07.906Z,7287
2023-03-10T12:42:07.833Z,8103
2023-03-10T12:45:07.873Z,7713
2023-03-10T12:48:07.850Z,10447
2023-03-10T12:51:07.866Z,16973
2023-03-10T12:54:08.070Z,23717
2023-03-10T12:57:07.868Z,17537
2023-03-10T13:00:08.031Z,14527
2023-03-10T13:03:07.934Z,12103
2023-03-10T13:06:07.972Z,9720
2023-03-10T13:09:10.400Z,9630
2023-03-10T13:12:07.922Z,9247
2023-03-10T13:15:07.918Z,10300
2023-03-10T13:18:07.989Z,11093
2023-03-10T13:21:07.849Z,9357
2023-03-10T13:24:08.095Z,10677
2023-03-10T13:27:07.929Z,10710
2023-03-10T13:30:07.995Z,10277
2023-03-10T13:33:07.889Z,8483
2023-03-10T13:36:08.137Z,5973
2023-03-10T13:39:08.109Z,4020
2023-03-10T13:42:07.974Z,3027
2023-03-10T13:45:07.870Z,3007
2023-03-10T13:48:07.820Z,2987
2023-03-10T13:51:07.904Z,3083
2023-03-10T13:54:07.864Z,3927
2023-03-10T13:57:07.837Z,7083
2023-03-10T14:00:08.148Z,9267
2023-03-10T14:03:07.881Z,9483
2023-03-10T14:06:07.915Z,10123
2023-03-10T14:09:10.170Z,11913
2023-03-10T14:12:07.811Z,12560
2023-03-10T14:15:07.930Z,12330
2023-03-10T14:18:07.910Z,8350
2023-03-10T14:21:07.862Z,4207
2023-03-10T14:24:07.876Z,4013
2023-03-10T14:27:07.857Z,5540
2023-03-10T14:30:07.867Z,4407
2023-03-10T14:33:08.062Z,3393
2023-03-10T14:36:08.187Z,2767
2023-03-10T14:39:11.284Z,2840
2023-03-10T14:42:07.817Z,2790
2023-03-10T14:45:07.862Z,2817
2023-03-10T14:48:08.557Z,2950
2023-03-10T14:51:07.807Z,2823
2023-03-10T14:54:07.970Z,2400
2023-03-10T14:57:07.801Z,2240
2023-03-10T15:00:08.020Z,2423
2023-03-10T15:03:10.625Z,3270
2023-03-10T15:06:07.945Z,2647
2023-03-10T15:09:07.919Z,2387
2023-03-10T15:12:07.856Z,2260
2023-03-10T15:15:07.833Z,1373
2023-03-10T15:18:07.806Z,1250
2023-03-10T15:21:07.861Z,1030
2023-03-10T15:24:08.183Z,1453
2023-03-10T15:27:07.825Z,1577
2023-03-10T15:30:08.001Z,1217
2023-03-10T15:33:07.954Z,1320
2023-03-10T15:36:08.343Z,1677
2023-03-10T15:39:07.881Z,2260
2023-03-10T15:42:07.856Z,2773
2023-03-10T15:45:09.983Z,2837
2023-03-10T15:48:07.851Z,3043
2023-03-10T15:51:09.794Z,2957
2023-03-10T15:54:07.880Z,2547
2023-03-10T15:57:09.721Z,2090
2023-03-10T16:00:07.938Z,1380
2023-03-10T16:03:07.889Z,960
2023-03-10T16:06:07.819Z,803
2023-03-10T16:09:11.129Z,1057
2023-03-10T16:12:07.978Z,1193
2023-03-10T16:15:07.820Z,1043
2023-03-10T16:18:07.848Z,967
2023-03-10T16:21:07.923Z,787
2023-03-10T16:24:07.821Z,780
2023-03-10T16:27:08.110Z,710
2023-03-10T16:30:08.354Z,673
2023-03-10T16:33:07.925Z,733
2023-03-10T16:36:08.286Z,687
2023-03-10T16:39:08.072Z,610
2023-03-10T16:42:07.790Z,597
2023-03-10T16:45:08.030Z,537
2023-03-10T16:48:07.820Z,447
2023-03-10T16:51:07.827Z,367
2023-03-10T16:54:07.841Z,313
2023-03-10T16:57:07.797Z,237
2023-03-10T17:00:08.025Z,193
2023-03-10T17:03:08.009Z,170
2023-03-10T17:06:07.848Z,143
2023-03-10T17:09:07.825Z,107
2023-03-10T17:12:07.793Z,67
2023-03-10T17:15:08.126Z,40
2023-03-10T17:18:07.813Z,30
2023-03-10T17:21:07.813Z,23
2023-03-10T17:24:07.774Z,17
2023-03-10T17:27:07.787Z,10
2023-03-10T17:30:08.043Z,7
2023-03-10T17:33:07.855Z,3
2023-03-10T17:36:07.813Z,3
2023-03-10T17:39:07.874Z,0
2023-03-10T17:42:07.831Z,0
2023-03-10T17:45:10.374Z,0
2023-03-10T17:48:07.772Z,0
2023-03-10T17:51:08.003Z,0
2023-03-10T17:54:08.014Z,0
2023-03-10T17:57:07.880Z,0
2023-03-10T18:00:07.831Z,0
2023-03-10T18:03:08.679Z,0
2023-03-10T18:06:08.037Z,0
2023-03-10T18:09:08.038Z,0
2023-03-10T18:12:07.802Z,0
2023-03-10T18:15:07.824Z,0
2023-03-10T18:18:07.805Z,0
2023-03-10T18:21:07.869Z,0
2023-03-10T18:24:07.879Z,0
2023-03-10T18:27:07.819Z,0
2023-03-10T18:30:07.864Z,0
2023-03-10T18:33:07.778Z,0
2023-03-10T18:36:07.792Z,0
2023-03-10T18:39:07.824Z,0
2023-03-10T18:42:07.838Z,0
2023-03-10T18:45:07.786Z,0
2023-03-10T18:48:07.757Z,0
2023-03-10T18:51:07.848Z,0
2023-03-10T18:54:10.308Z,0
2023-03-10T18:57:07.772Z,0
2023-03-10T19:00:08.120Z,0
2023-03-10T19:03:08.164Z,0
2023-03-10T19:06:07.874Z,0
2023-03-10T19:09:07.797Z,0
2023-03-10T19:12:07.790Z,0
2023-03-10T19:15:07.776Z,0
2023-03-10T19:18:07.885Z,0
2023-03-10T19:21:07.739Z,0
2023-03-10T19:24:07.817Z,0
2023-03-10T19:27:08.046Z,0
2023-03-10T19:30:07.876Z,0
2023-03-10T19:33:07.756Z,0
2023-03-10T19:36:10.078Z,0
2023-03-10T19:39:07.814Z,0
2023-03-10T19:42:07.749Z,0
2023-03-10T19:45:07.747Z,0
2023-03-10T19:48:07.775Z,0
2023-03-10T19:51:07.809Z,0
2023-03-10T19:54:07.813Z,0
2023-03-10T19:57:07.963Z,0
2023-03-10T20:00:07.932Z,0
2023-03-10T20:03:08.204Z,0
2023-03-10T20:06:07.707Z,0
2023-03-10T20:09:07.740Z,0
2023-03-10T20:12:07.768Z,0
2023-03-10T20:15:07.827Z,0
2023-03-10T20:18:07.754Z,0
2023-03-10T20:21:07.763Z,0
2023-03-10T20:24:07.739Z,0
2023-03-10T20:27:07.783Z,0
2023-03-10T20:30:07.778Z,0
2023-03-10T20:33:07.767Z,0
2023-03-10T20:36:07.990Z,0
2023-03-10T20:39:07.861Z,0
2023-03-10T20:42:07.782Z,0
2023-03-10T20:45:07.817Z,0
2023-03-10T20:48:07.788Z,0
2023-03-10T20:51:07.888Z,0
2023-03-10T20:54:07.693Z,0
2023-03-10T20:57:07.822Z,0
2023-03-10T21:00:07.787Z,0
2023-03-10T21:03:07.774Z,0
2023-03-10T21:06:07.886Z,0
2023-03-10T21:09:08.170Z,0
2023-03-10T21:12:07.948Z,0
2023-03-10T21:15:07.786Z,0
2023-03-10T21:18:07.914Z,0
2023-03-10T21:21:07.793Z,0
2023-03-10T21:24:07.868Z,0
2023-03-10T21:27:07.783Z,0
2023-03-10T21:30:08.019Z,0
2023-03-10T21:33:07.829Z,0
2023-03-10T21:36:08.733Z,0
2023-03-10T21:39:08.102Z,0
2023-03-10T21:42:07.876Z,0
2023-03-10T21:45:08.606Z,0
2023-03-10T21:48:07.865Z,0
2023-03-10T21:51:07.981Z,0
2023-03-10T21:54:08.297Z,0
2023-03-10T21:57:07.918Z,0
2023-03-10T22:00:07.937Z,0
2023-03-10T22:03:07.818Z,0
2023-03-10T22:06:07.894Z,0
2023-03-10T22:09:07.884Z,0
2023-03-10T22:12:08.058Z,0
2023-03-10T22:15:07.954Z,0
2023-03-10T22:18:07.779Z,0
2023-03-10T22:21:07.936Z,0
2023-03-10T22:24:07.978Z,0
2023-03-10T22:27:07.847Z,0
2023-03-10T22:30:07.818Z,0
2023-03-10T22:33:07.889Z,0
2023-03-10T22:36:08.505Z,0
2023-03-10T22:39:07.802Z,0
2023-03-10T22:42:07.830Z,0
2023-03-10T22:45:07.864Z,0
2023-03-10T22:48:07.941Z,0
2023-03-10T22:51:07.836Z,0
2023-03-10T22:54:07.783Z,0
2023-03-10T22:57:07.791Z,0
2023-03-10T23:00:08.843Z,0
2023-03-10T23:03:08.221Z,0
2023-03-10T23:06:07.772Z,0
2023-03-10T23:09:10.403Z,0
2023-03-10T23:12:07.968Z,0
2023-03-10T23:15:27.175Z,0
2023-03-10T23:18:07.808Z,0
2023-03-10T23:21:07.978Z,0
2023-03-10T23:24:07.874Z,0
2023-03-10T23:27:07.758Z,0
2023-03-10T23:30:07.892Z,0
2023-03-10T23:33:07.852Z,0
2023-03-10T23:36:08.173Z,0
2023-03-10T23:39:07.830Z,0
2023-03-10T23:42:07.874Z,0
2023-03-10T23:45:07.790Z,0
2023-03-10T23:48:07.775Z,0
2023-03-10T23:51:07.871Z,0
2023-03-10T23:54:07.866Z,0
2023-03-10T23:57:07.816Z,0
